createdAt,value
2022-09-05T00:01:05.445Z,101012.00
2022-09-05T00:06:05.414Z,101012.00
2022-09-05T00:11:41.853Z,101012.00
2022-09-05T00:16:07.474Z,101012.00
2022-09-05T00:24:27.974Z,101012.00
2022-09-05T00:26:09.405Z,101014.00
2022-09-05T00:31:54.005Z,101014.00
2022-09-05T00:36:11.397Z,101009.00
2022-09-05T00:41:11.430Z,101011.00
2022-09-05T00:46:12.351Z,101012.00
2022-09-05T00:51:12.738Z,101009.00
2022-09-05T00:56:12.420Z,101009.00
2022-09-05T01:01:21.369Z,101011.00
2022-09-05T01:06:14.439Z,101009.00
2022-09-05T01:11:14.698Z,101005.00
2022-09-05T01:16:14.595Z,101009.00
2022-09-05T01:21:17.521Z,101011.00
2022-09-05T01:26:17.567Z,101011.00
2022-09-05T01:31:17.618Z,101012.00
2022-09-05T01:36:18.093Z,101011.00
2022-09-05T01:41:19.677Z,101014.00
2022-09-05T01:46:19.574Z,101012.00
2022-09-05T01:51:29.463Z,101011.00
2022-09-05T01:56:21.625Z,101009.00
2022-09-05T02:01:25.466Z,101009.00
2022-09-05T02:06:23.577Z,101011.00
2022-09-05T02:11:35.785Z,101014.00
2022-09-05T02:16:27.516Z,101014.00
2022-09-05T02:21:27.569Z,101014.00
2022-09-05T02:26:27.510Z,101014.00
2022-09-05T02:31:27.807Z,101014.00
2022-09-05T02:36:27.583Z,101012.00
2022-09-05T02:45:11.149Z,101014.00
2022-09-05T02:46:31.017Z,101014.00
2022-09-05T02:57:30.047Z,101012.00
2022-09-05T02:57:39.659Z,101012.00
2022-09-05T03:01:35.662Z,101012.00
2022-09-05T03:06:35.580Z,101018.00
2022-09-05T03:11:35.513Z,101018.00
2022-09-05T03:16:39.241Z,101016.00
2022-09-05T03:21:37.620Z,101018.00
2022-09-05T03:26:37.566Z,101018.00
2022-09-05T03:31:39.718Z,101016.00
2022-09-05T03:36:39.798Z,101022.00
2022-09-05T03:41:40.645Z,101026.00
2022-09-05T03:46:40.573Z,101026.00
2022-09-05T03:57:10.711Z,101028.00
2022-09-05T03:57:17.061Z,101026.00
2022-09-05T04:06:15.698Z,101024.00
2022-09-05T04:08:17.689Z,101020.00
2022-09-05T04:11:49.666Z,101020.00
2022-09-05T04:16:50.560Z,101020.00
2022-09-05T04:21:50.672Z,101024.00
2022-09-05T04:26:50.599Z,101028.00
2022-09-05T04:32:15.428Z,101030.00
2022-09-05T04:36:53.615Z,101030.00
2022-09-05T04:41:53.910Z,101032.00
2022-09-05T04:46:53.719Z,101034.00
2022-09-05T04:52:00.206Z,101036.00
2022-09-05T04:56:55.626Z,101040.00
2022-09-05T05:06:05.905Z,101046.00
2022-09-05T05:07:05.974Z,101050.00
2022-09-05T05:18:02.286Z,101060.00
2022-09-05T05:18:12.790Z,101064.00
2022-09-05T05:22:03.698Z,101068.00
2022-09-05T05:27:03.725Z,101070.00
2022-09-05T05:32:03.738Z,101074.00
2022-09-05T05:37:03.683Z,101070.00
2022-09-05T05:42:20.146Z,101070.00
2022-09-05T05:47:05.698Z,101070.00
2022-09-05T05:52:05.648Z,101074.00
2022-09-05T05:57:14.770Z,101078.00
2022-09-05T06:02:07.863Z,101082.00
2022-09-05T06:07:09.930Z,101082.00
2022-09-05T06:14:58.710Z,101084.00
2022-09-05T06:17:12.676Z,101088.00
2022-09-05T06:22:16.822Z,101090.00
2022-09-05T06:27:14.642Z,101086.00
2022-09-05T06:32:14.673Z,101084.00
2022-09-05T06:37:16.680Z,101084.00
2022-09-05T06:42:33.439Z,101084.00
2022-09-05T06:47:23.976Z,101094.00
2022-09-05T06:52:29.291Z,101101.00
2022-09-05T06:57:22.800Z,101099.00
2022-09-05T07:02:58.173Z,101096.00
2022-09-05T07:07:27.507Z,101094.00
2022-09-05T07:12:28.661Z,101088.00
2022-09-05T07:17:29.784Z,101084.00
2022-09-05T07:22:47.616Z,101082.00
2022-09-05T07:27:34.245Z,101080.00
2022-09-05T07:32:35.753Z,101076.00
2022-09-05T07:37:36.014Z,101076.00
2022-09-05T07:42:36.289Z,101080.00
2022-09-05T07:47:35.915Z,101080.00
2022-09-05T07:56:56.943Z,101084.00
2022-09-05T07:57:50.721Z,101084.00
2022-09-05T08:02:44.057Z,101086.00
2022-09-05T08:07:49.032Z,101082.00
2022-09-05T08:13:22.658Z,101076.00
2022-09-05T08:17:46.800Z,101068.00
2022-09-05T08:22:49.560Z,101066.00
2022-09-05T08:27:49.198Z,101060.00
2022-09-05T08:32:48.875Z,101050.00
2022-09-05T08:37:49.877Z,101044.00
2022-09-05T08:44:37.530Z,101036.00
2022-09-05T08:47:51.913Z,101030.00
2022-09-05T08:52:51.895Z,101020.00
2022-09-05T08:57:51.839Z,101018.00
2022-09-05T09:02:51.930Z,101012.00
2022-09-05T09:07:52.595Z,101005.00
2022-09-05T09:12:52.955Z,100997.00
2022-09-05T09:17:52.897Z,100991.00
2022-09-05T09:22:52.929Z,100991.00
2022-09-05T09:28:07.356Z,100987.00
2022-09-05T09:32:58.875Z,100983.00
2022-09-05T09:37:59.670Z,100979.00
2022-09-05T09:43:04.069Z,100977.00
2022-09-05T09:48:02.951Z,100973.00
2022-09-05T09:53:02.966Z,100977.00
2022-09-05T09:58:03.672Z,100979.00
2022-09-05T10:05:22.444Z,100975.00
2022-09-05T10:10:58.215Z,100977.00
2022-09-05T10:13:09.185Z,100967.00
2022-09-05T10:18:09.009Z,100969.00
2022-09-05T10:23:09.042Z,100958.00
2022-09-05T10:28:09.131Z,100952.00
2022-09-05T10:35:11.572Z,100952.00
2022-09-05T10:38:11.305Z,100950.00
2022-09-05T10:43:12.905Z,100946.00
2022-09-05T10:48:13.959Z,100950.00
2022-09-05T10:53:13.966Z,100946.00
2022-09-05T10:58:13.947Z,100942.00
2022-09-05T11:03:15.121Z,100938.00
2022-09-05T11:08:17.115Z,100930.00
2022-09-05T11:13:17.045Z,100930.00
2022-09-05T11:18:17.135Z,100922.00
2022-09-05T11:23:17.526Z,100924.00
2022-09-05T11:28:17.051Z,100918.00
2022-09-05T11:39:49.018Z,100911.00
2022-09-05T11:40:02.804Z,100907.00
2022-09-05T11:43:21.075Z,100909.00
2022-09-05T11:48:21.763Z,100911.00
2022-09-05T11:53:21.985Z,100907.00
2022-09-05T11:58:43.144Z,100913.00
2022-09-05T12:03:57.063Z,100907.00
2022-09-05T12:08:28.801Z,100909.00
2022-09-05T12:13:30.005Z,100905.00
2022-09-05T12:18:30.191Z,100905.00
2022-09-05T12:23:38.491Z,100903.00
2022-09-05T12:29:27.741Z,100899.00
2022-09-05T12:36:02.466Z,100895.00
2022-09-05T12:40:57.036Z,100899.00
2022-09-05T12:44:20.886Z,100897.00
2022-09-05T12:48:40.143Z,100901.00
2022-09-05T12:53:41.091Z,100901.00
2022-09-05T13:02:57.219Z,100901.00
2022-09-05T13:04:06.052Z,100895.00
2022-09-05T13:08:47.051Z,100891.00
2022-09-05T13:14:58.078Z,100889.00
2022-09-05T13:18:51.046Z,100879.00
2022-09-05T13:23:51.089Z,100873.00
2022-09-05T13:28:51.701Z,100867.00
2022-09-05T13:38:06.303Z,100862.00
2022-09-05T13:38:58.850Z,100848.00
2022-09-05T13:44:00.553Z,100844.00
2022-09-05T13:54:04.152Z,100838.00
2022-09-05T13:59:04.081Z,100836.00
2022-09-05T14:04:05.136Z,100832.00
2022-09-05T14:14:09.228Z,100826.00
2022-09-05T14:19:29.363Z,100820.00
2022-09-05T14:24:34.161Z,100822.00
2022-09-05T14:29:35.013Z,100819.00
2022-09-05T14:37:50.390Z,100813.00
2022-09-05T14:39:37.279Z,100811.00
2022-09-05T14:44:37.846Z,100807.00
2022-09-05T14:49:40.171Z,100803.00
2022-09-05T14:59:42.194Z,100788.00
2022-09-05T15:04:44.655Z,100784.00
2022-09-05T15:12:14.447Z,100780.00
2022-09-05T15:14:47.157Z,100777.00
2022-09-05T15:19:53.274Z,100775.00
2022-09-05T15:24:49.259Z,100775.00
2022-09-05T15:29:50.211Z,100771.00
2022-09-05T15:34:50.246Z,100777.00
2022-09-05T15:39:50.265Z,100775.00
2022-09-05T15:45:16.800Z,100769.00
2022-09-05T15:49:52.368Z,100769.00
2022-09-05T15:54:52.233Z,100765.00
2022-09-05T15:59:52.270Z,100761.00
2022-09-05T16:10:35.103Z,100755.00
2022-09-05T16:10:38.139Z,100749.00
2022-09-05T16:16:10.045Z,100745.00
2022-09-05T16:19:58.260Z,100745.00
2022-09-05T16:25:00.794Z,100743.00
2022-09-05T16:30:01.297Z,100745.00
2022-09-05T16:35:01.242Z,100739.00
2022-09-05T16:40:01.415Z,100739.00
2022-09-05T16:45:01.286Z,100735.00
2022-09-05T16:50:01.243Z,100730.00
2022-09-05T16:55:02.666Z,100726.00
2022-09-05T17:00:02.364Z,100722.00
2022-09-05T17:05:05.065Z,100718.00
2022-09-05T17:10:04.411Z,100712.00
2022-09-05T17:15:04.311Z,100710.00
2022-09-05T17:20:05.891Z,100702.00
2022-09-05T17:29:33.768Z,100700.00
2022-09-05T17:35:17.724Z,100702.00
2022-09-05T17:40:14.152Z,100700.00
2022-09-05T17:45:14.308Z,100702.00
2022-09-05T17:50:14.313Z,100704.00
2022-09-05T17:55:14.531Z,100702.00
2022-09-05T18:00:14.452Z,100708.00
2022-09-05T18:05:14.925Z,100712.00
2022-09-05T18:15:17.331Z,100714.00
2022-09-05T18:20:17.335Z,100712.00
2022-09-05T18:25:30.842Z,100714.00
2022-09-05T18:30:20.486Z,100716.00
2022-09-05T18:35:26.378Z,100718.00
2022-09-05T18:40:36.268Z,100714.00
2022-09-05T18:45:28.815Z,100716.00
2022-09-05T18:50:28.121Z,100722.00
2022-09-05T18:56:09.254Z,100722.00
2022-09-05T19:00:43.988Z,100720.00
2022-09-05T19:05:33.375Z,100718.00
2022-09-05T19:10:36.718Z,100720.00
2022-09-05T19:15:36.366Z,100714.00
2022-09-05T19:20:40.958Z,100716.00
2022-09-05T19:25:38.392Z,100718.00
2022-09-05T19:36:51.772Z,100712.00
2022-09-05T19:37:11.975Z,100718.00
2022-09-05T19:47:29.947Z,100714.00
2022-09-05T19:47:49.054Z,100704.00
2022-09-05T19:50:47.125Z,100698.00
2022-09-05T19:55:47.401Z,100694.00
2022-09-05T20:01:01.031Z,100690.00
2022-09-05T20:05:50.981Z,100686.00
2022-09-05T20:10:50.435Z,100684.00
2022-09-05T20:15:51.283Z,100683.00
2022-09-05T20:20:51.550Z,100684.00
2022-09-05T20:25:51.604Z,100688.00
2022-09-05T20:30:51.436Z,100686.00
2022-09-05T20:43:09.524Z,100690.00
2022-09-05T20:43:22.130Z,100686.00
2022-09-05T20:46:51.855Z,100681.00
2022-09-05T20:54:21.961Z,100681.00
2022-09-05T20:56:01.572Z,100681.00
2022-09-05T21:01:19.889Z,100683.00
2022-09-05T21:06:05.430Z,100679.00
2022-09-05T21:11:05.542Z,100675.00
2022-09-05T21:16:05.637Z,100671.00
2022-09-05T21:21:28.326Z,100673.00
2022-09-05T21:26:07.476Z,100677.00
2022-09-05T21:31:10.562Z,100681.00
2022-09-05T21:36:11.398Z,100679.00
2022-09-05T21:41:14.348Z,100679.00
2022-09-05T21:47:40.906Z,100667.00
2022-09-05T21:51:16.618Z,100657.00
2022-09-05T21:59:24.160Z,100657.00
2022-09-05T22:01:19.594Z,100655.00
2022-09-05T22:06:21.974Z,100649.00
2022-09-05T22:11:21.587Z,100645.00
2022-09-05T22:16:22.285Z,100643.00
2022-09-05T22:21:33.292Z,100639.00
2022-09-05T22:26:24.526Z,100634.00
2022-09-05T22:31:27.819Z,100624.00
2022-09-05T22:36:27.537Z,100616.00
2022-09-05T22:41:29.956Z,100624.00
2022-09-05T22:46:29.614Z,100626.00
2022-09-05T22:51:29.595Z,100628.00
2022-09-05T22:56:29.625Z,100628.00
2022-09-05T23:01:32.733Z,100630.00
2022-09-05T23:06:32.764Z,100632.00
2022-09-05T23:11:32.625Z,100636.00
2022-09-05T23:16:32.652Z,100636.00
2022-09-05T23:21:32.580Z,100632.00
2022-09-05T23:26:32.550Z,100628.00
2022-09-05T23:31:32.807Z,100622.00
2022-09-05T23:36:32.577Z,100624.00
2022-09-05T23:41:32.691Z,100624.00
2022-09-05T23:46:32.861Z,100620.00
2022-09-05T23:51:32.587Z,100618.00
2022-09-05T23:56:33.122Z,100614.00
